createdAt,value
2024-01-27T00:01:03.530Z,0.57
2024-01-27T00:03:31.067Z,0.85
2024-01-27T00:05:58.647Z,0.47
2024-01-27T00:08:26.116Z,0.50
2024-01-27T00:10:53.526Z,0.85
2024-01-27T00:13:22.306Z,0.65
2024-01-27T00:15:50.110Z,1.17
2024-01-27T00:18:17.734Z,0.60
2024-01-27T00:20:45.256Z,0.82
2024-01-27T00:23:12.748Z,1.45
2024-01-27T00:25:40.222Z,0.90
2024-01-27T00:28:07.768Z,0.50
2024-01-27T00:30:36.581Z,1.00
2024-01-27T00:33:04.423Z,0.55
2024-01-27T00:35:32.051Z,1.00
2024-01-27T00:37:59.528Z,1.65
2024-01-27T00:40:26.977Z,0.73
2024-01-27T00:42:55.540Z,0.95
2024-01-27T00:45:23.803Z,0.88
2024-01-27T00:47:52.812Z,1.08
2024-01-27T00:50:20.405Z,0.77
2024-01-27T00:52:47.818Z,0.77
2024-01-27T00:55:15.270Z,0.70
2024-01-27T00:57:42.888Z,0.75
2024-01-27T01:00:11.651Z,1.33
2024-01-27T01:02:40.063Z,0.75
2024-01-27T01:05:09.405Z,0.70
2024-01-27T01:07:36.832Z,1.05
2024-01-27T01:10:05.312Z,0.68
2024-01-27T01:12:32.790Z,0.90
2024-01-27T01:15:00.408Z,0.82
2024-01-27T01:17:27.898Z,0.68
2024-01-27T01:19:55.436Z,0.75
2024-01-27T01:22:24.276Z,1.38
2024-01-27T01:24:51.683Z,1.50
2024-01-27T01:27:20.301Z,0.50
2024-01-27T01:29:48.000Z,0.80
2024-01-27T01:32:16.495Z,0.77
2024-01-27T01:34:43.977Z,0.60
2024-01-27T01:37:11.420Z,0.80
2024-01-27T01:39:40.172Z,0.70
2024-01-27T01:42:07.642Z,0.80
2024-01-27T01:44:35.081Z,0.93
2024-01-27T01:47:03.008Z,0.88
2024-01-27T01:49:30.586Z,0.68
2024-01-27T01:51:58.644Z,1.33
2024-01-27T01:54:28.861Z,0.77
2024-01-27T01:57:00.022Z,0.82
2024-01-27T01:59:27.557Z,1.35
2024-01-27T02:01:55.102Z,1.00
2024-01-27T02:04:22.663Z,0.70
2024-01-27T02:06:50.288Z,1.60
2024-01-27T02:09:17.859Z,0.80
2024-01-27T02:11:45.331Z,0.75
2024-01-27T02:14:14.506Z,0.80
2024-01-27T02:16:41.947Z,0.60
2024-01-27T02:19:09.913Z,0.73
2024-01-27T02:21:37.530Z,1.00
2024-01-27T02:24:10.721Z,1.35
2024-01-27T02:26:38.589Z,0.75
2024-01-27T02:29:06.063Z,0.80
2024-01-27T02:31:33.552Z,1.08
2024-01-27T02:34:01.075Z,0.60
2024-01-27T02:36:28.701Z,0.98
2024-01-27T02:38:56.246Z,0.60
2024-01-27T02:41:25.025Z,0.70
2024-01-27T02:43:52.467Z,0.90
2024-01-27T02:46:19.990Z,0.85
2024-01-27T02:48:47.903Z,1.40
2024-01-27T02:51:15.460Z,0.98
2024-01-27T02:53:42.927Z,1.42
2024-01-27T02:56:10.516Z,1.35
2024-01-27T02:58:39.294Z,0.90
2024-01-27T03:01:06.746Z,0.65
2024-01-27T03:03:34.309Z,0.65
2024-01-27T03:06:01.838Z,0.95
2024-01-27T03:08:29.296Z,0.80
2024-01-27T03:10:56.758Z,0.75
2024-01-27T03:13:24.178Z,0.75
2024-01-27T03:15:53.489Z,0.80
2024-01-27T03:18:21.164Z,0.75
2024-01-27T03:20:48.886Z,0.65
2024-01-27T03:23:16.351Z,1.17
2024-01-27T03:25:43.859Z,0.77
2024-01-27T03:28:11.305Z,1.02
2024-01-27T03:30:37.923Z,0.90
2024-01-27T03:33:07.662Z,1.13
2024-01-27T03:35:35.124Z,0.50
2024-01-27T03:38:04.806Z,1.00
2024-01-27T03:40:32.740Z,1.25
2024-01-27T03:43:00.160Z,1.55
2024-01-27T03:45:27.735Z,1.50
2024-01-27T03:47:55.525Z,0.82
2024-01-27T03:50:24.427Z,0.90
2024-01-27T03:52:50.937Z,1.08
2024-01-27T03:55:18.396Z,1.02
2024-01-27T03:57:45.828Z,0.40
2024-01-27T04:00:14.544Z,0.90
2024-01-27T04:02:41.974Z,1.60
2024-01-27T04:05:09.677Z,0.80
2024-01-27T04:07:38.468Z,1.02
2024-01-27T04:10:06.408Z,0.90
2024-01-27T04:12:33.984Z,1.58
2024-01-27T04:15:01.553Z,0.88
2024-01-27T04:17:29.132Z,1.25
2024-01-27T04:19:56.635Z,1.30
2024-01-27T04:22:24.172Z,0.82
2024-01-27T04:24:52.962Z,1.02
2024-01-27T04:27:20.435Z,0.82
2024-01-27T04:29:48.009Z,1.05
2024-01-27T04:32:15.446Z,1.45
2024-01-27T04:34:43.016Z,0.90
2024-01-27T04:37:10.476Z,1.02
2024-01-27T04:39:37.909Z,1.33
2024-01-27T04:42:07.442Z,1.00
2024-01-27T04:44:34.996Z,0.85
2024-01-27T04:47:02.417Z,0.77
2024-01-27T04:49:29.910Z,0.70
2024-01-27T04:51:57.349Z,1.00
2024-01-27T04:54:24.776Z,0.70
2024-01-27T04:56:52.271Z,0.90
2024-01-27T04:59:21.053Z,0.98
2024-01-27T05:01:48.956Z,0.80
2024-01-27T05:04:16.617Z,1.10
2024-01-27T05:06:46.673Z,0.88
2024-01-27T05:09:14.593Z,1.27
2024-01-27T05:11:43.860Z,1.00
2024-01-27T05:14:11.318Z,3.80
2024-01-27T05:16:40.290Z,0.70
2024-01-27T05:19:07.963Z,1.00
2024-01-27T05:21:35.505Z,1.02
2024-01-27T05:24:03.046Z,2.03
2024-01-27T05:26:30.530Z,0.80
2024-01-27T05:28:57.949Z,0.88
2024-01-27T05:31:25.477Z,2.13
2024-01-27T05:33:54.430Z,1.40
2024-01-27T05:36:21.972Z,1.20
2024-01-27T05:38:49.483Z,0.80
2024-01-27T05:41:16.934Z,1.20
2024-01-27T05:43:44.394Z,0.82
2024-01-27T05:46:11.843Z,0.68
2024-01-27T05:48:39.416Z,0.98
2024-01-27T05:51:08.660Z,1.20
2024-01-27T05:53:37.483Z,0.85
2024-01-27T05:56:05.722Z,1.30
2024-01-27T05:58:33.154Z,1.25
2024-01-27T06:01:00.658Z,0.95
2024-01-27T06:03:28.191Z,1.95
2024-01-27T06:05:55.734Z,2.28
2024-01-27T06:08:24.576Z,1.40
2024-01-27T06:10:51.974Z,1.33
2024-01-27T06:13:19.446Z,0.60
2024-01-27T06:15:46.840Z,1.42
2024-01-27T06:18:14.336Z,0.90
2024-01-27T06:20:42.036Z,0.93
2024-01-27T06:23:09.490Z,1.02
2024-01-27T06:25:38.228Z,1.15
2024-01-27T06:28:05.924Z,2.15
2024-01-27T06:30:33.483Z,1.30
2024-01-27T06:33:01.106Z,1.40
2024-01-27T06:35:28.552Z,0.90
2024-01-27T06:37:56.009Z,1.00
2024-01-27T06:40:23.413Z,0.82
2024-01-27T06:42:52.547Z,0.93
2024-01-27T06:45:19.996Z,1.00
2024-01-27T06:47:47.488Z,0.65
2024-01-27T06:50:16.270Z,1.35
2024-01-27T06:52:43.743Z,0.80
2024-01-27T06:55:11.973Z,0.73
2024-01-27T06:57:41.816Z,0.82
2024-01-27T07:00:15.160Z,0.80
2024-01-27T07:02:43.092Z,1.45
2024-01-27T07:05:11.316Z,1.00
2024-01-27T07:07:38.792Z,0.75
2024-01-27T07:10:08.688Z,1.30
2024-01-27T07:12:36.546Z,1.23
2024-01-27T07:15:04.714Z,1.25
2024-01-27T07:17:33.580Z,1.27
2024-01-27T07:20:01.032Z,0.88
2024-01-27T07:22:28.552Z,1.23
2024-01-27T07:24:57.112Z,1.30
2024-01-27T07:27:24.646Z,2.50
2024-01-27T07:29:52.155Z,1.40
2024-01-27T07:32:19.618Z,0.95
2024-01-27T07:34:48.424Z,1.70
2024-01-27T07:37:15.973Z,1.30
2024-01-27T07:39:43.416Z,0.90
2024-01-27T07:42:11.079Z,1.40
2024-01-27T07:44:38.563Z,1.08
2024-01-27T07:47:06.146Z,1.00
2024-01-27T07:49:33.669Z,1.15
2024-01-27T07:52:02.558Z,1.67
2024-01-27T07:54:30.339Z,1.52
2024-01-27T07:56:57.847Z,1.90
2024-01-27T07:59:25.323Z,1.35
2024-01-27T08:01:52.716Z,1.10
2024-01-27T08:04:20.181Z,1.63
2024-01-27T08:06:49.149Z,1.13
2024-01-27T08:09:21.493Z,0.98
2024-01-27T08:11:53.816Z,1.02
2024-01-27T08:14:22.439Z,1.33
2024-01-27T08:16:49.929Z,1.20
2024-01-27T08:19:21.631Z,1.23
2024-01-27T08:21:49.636Z,1.20
2024-01-27T08:24:17.111Z,1.00
2024-01-27T08:26:47.358Z,1.20
2024-01-27T08:29:14.791Z,1.23
2024-01-27T08:31:42.377Z,1.33
2024-01-27T08:34:10.247Z,1.88
2024-01-27T08:36:38.323Z,0.82
2024-01-27T08:39:08.452Z,2.25
2024-01-27T08:41:35.955Z,1.38
2024-01-27T08:44:05.215Z,1.33
2024-01-27T08:46:32.699Z,1.25
2024-01-27T08:49:00.161Z,1.00
2024-01-27T08:54:19.376Z,1.00
2024-01-27T08:56:46.857Z,1.25
2024-01-27T08:59:15.605Z,1.23
2024-01-27T09:01:43.643Z,1.10
2024-01-27T09:04:11.456Z,2.20
2024-01-27T09:06:39.689Z,0.90
2024-01-27T09:09:07.276Z,1.02
2024-01-27T09:11:35.372Z,1.83
2024-01-27T09:14:02.848Z,1.95
2024-01-27T09:16:31.683Z,1.50
2024-01-27T09:18:59.225Z,1.25
2024-01-27T09:21:29.744Z,1.33
2024-01-27T09:23:58.343Z,1.15
2024-01-27T09:26:26.260Z,1.83
2024-01-27T09:28:57.196Z,1.25
2024-01-27T09:31:26.037Z,2.28
2024-01-27T09:33:58.059Z,1.10
2024-01-27T09:36:27.228Z,1.23
2024-01-27T09:38:57.724Z,1.08
2024-01-27T09:41:25.540Z,0.95
2024-01-27T09:43:59.408Z,1.48
2024-01-27T09:46:28.541Z,1.20
2024-01-27T09:48:57.858Z,1.00
2024-01-27T09:51:26.581Z,1.70
2024-01-27T09:53:54.752Z,1.13
2024-01-27T09:56:22.917Z,1.05
2024-01-27T09:58:52.101Z,1.42
2024-01-27T10:01:20.102Z,1.65
2024-01-27T10:03:49.345Z,1.60
2024-01-27T10:06:19.099Z,1.10
2024-01-27T10:08:55.703Z,1.40
2024-01-27T10:11:26.136Z,1.13
2024-01-27T10:13:59.589Z,1.50
2024-01-27T10:16:28.195Z,1.10
2024-01-27T10:19:02.925Z,1.30
2024-01-27T10:21:31.985Z,1.40
2024-01-27T10:23:59.524Z,1.25
2024-01-27T10:26:26.993Z,1.63
2024-01-27T10:28:55.744Z,1.20
2024-01-27T10:31:28.547Z,1.83
2024-01-27T10:33:57.509Z,2.20
2024-01-27T10:36:25.295Z,1.48
2024-01-27T10:38:54.175Z,1.52
2024-01-27T10:41:27.390Z,2.42
2024-01-27T10:43:56.203Z,1.42
2024-01-27T10:46:24.054Z,1.60
2024-01-27T10:48:53.772Z,1.27
2024-01-27T10:51:29.118Z,1.50
2024-01-27T10:54:02.981Z,1.40
2024-01-27T10:56:31.356Z,1.27
2024-01-27T10:59:02.445Z,1.10
2024-01-27T11:01:32.972Z,1.40
2024-01-27T11:04:01.390Z,1.02
2024-01-27T11:06:31.098Z,1.27
2024-01-27T11:09:01.558Z,1.75
2024-01-27T11:11:29.151Z,2.00
2024-01-27T11:13:59.700Z,1.48
2024-01-27T11:16:28.590Z,1.35
2024-01-27T11:18:56.538Z,1.40
2024-01-27T11:21:24.165Z,1.45
2024-01-27T11:23:52.116Z,1.63
2024-01-27T11:26:22.494Z,1.55
2024-01-27T11:28:50.422Z,1.40
2024-01-27T11:31:19.957Z,1.75
2024-01-27T11:33:52.066Z,1.45
2024-01-27T11:36:22.372Z,1.85
2024-01-27T11:38:50.292Z,1.55
2024-01-27T11:41:27.319Z,2.15
2024-01-27T11:43:55.112Z,1.30
2024-01-27T11:46:22.731Z,1.50
2024-01-27T11:48:50.971Z,1.38
2024-01-27T11:51:20.069Z,1.88
2024-01-27T11:53:47.702Z,1.20
2024-01-27T11:56:15.488Z,1.77
2024-01-27T11:58:50.233Z,1.65
2024-01-27T12:01:18.206Z,1.73
2024-01-27T12:03:46.796Z,1.90
2024-01-27T12:06:15.585Z,1.98
2024-01-27T12:08:47.863Z,2.35
2024-01-27T12:11:15.935Z,1.70
2024-01-27T12:13:44.066Z,1.48
2024-01-27T12:16:13.206Z,1.50
2024-01-27T12:18:40.859Z,1.35
2024-01-27T12:21:08.468Z,2.42
2024-01-27T12:23:36.028Z,1.60
2024-01-27T12:26:03.591Z,1.95
2024-01-27T12:28:31.462Z,2.03
2024-01-27T12:30:59.224Z,2.63
2024-01-27T12:33:29.161Z,1.27
2024-01-27T12:35:56.966Z,1.30
2024-01-27T12:38:23.569Z,2.42
2024-01-27T12:40:51.006Z,1.70
2024-01-27T12:43:18.441Z,2.00
2024-01-27T12:45:46.065Z,2.17
2024-01-27T12:48:13.777Z,1.75
2024-01-27T12:50:42.571Z,2.15
2024-01-27T12:53:10.167Z,1.25
2024-01-27T12:55:37.591Z,1.35
2024-01-27T12:58:05.443Z,1.23
2024-01-27T13:00:32.892Z,1.20
2024-01-27T13:03:00.467Z,1.45
2024-01-27T13:05:27.952Z,1.23
2024-01-27T13:07:56.796Z,1.38
2024-01-27T13:10:24.311Z,1.67
2024-01-27T13:12:51.853Z,2.17
2024-01-27T13:15:20.168Z,1.40
2024-01-27T13:17:47.786Z,1.40
2024-01-27T13:20:17.752Z,2.10
2024-01-27T13:22:47.021Z,1.33
2024-01-27T13:25:16.154Z,1.10
2024-01-27T13:27:43.752Z,1.80
2024-01-27T13:30:11.843Z,0.95
2024-01-27T13:32:39.339Z,1.75
2024-01-27T13:35:08.777Z,1.00
2024-01-27T13:37:36.680Z,1.98
2024-01-27T13:40:05.148Z,1.60
2024-01-27T13:42:34.032Z,1.33
2024-01-27T13:45:01.711Z,1.40
2024-01-27T13:47:29.362Z,1.92
2024-01-27T13:49:56.971Z,1.30
2024-01-27T13:52:24.496Z,1.48
2024-01-27T13:54:51.988Z,1.13
2024-01-27T13:57:19.486Z,1.50
2024-01-27T13:59:48.303Z,1.38
2024-01-27T14:02:15.777Z,1.33
2024-01-27T14:04:43.304Z,1.48
2024-01-27T14:07:11.059Z,1.23
2024-01-27T14:09:38.652Z,1.30
2024-01-27T14:12:06.905Z,1.77
2024-01-27T14:14:37.734Z,1.17
2024-01-27T14:17:06.734Z,1.30
2024-01-27T14:19:34.274Z,1.20
2024-01-27T14:22:01.813Z,1.73
2024-01-27T14:24:29.264Z,1.40
2024-01-27T14:26:56.841Z,1.75
2024-01-27T14:29:24.299Z,1.92
2024-01-27T14:31:51.800Z,1.02
2024-01-27T14:34:20.790Z,1.23
2024-01-27T14:36:48.298Z,1.30
2024-01-27T14:39:15.847Z,1.33
2024-01-27T14:41:43.384Z,1.25
2024-01-27T14:44:12.234Z,1.40
2024-01-27T14:46:41.362Z,1.23
2024-01-27T14:49:09.627Z,1.10
2024-01-27T14:51:38.515Z,1.27
2024-01-27T14:54:06.973Z,1.08
2024-01-27T14:56:34.721Z,1.25
2024-01-27T14:59:02.233Z,1.63
2024-01-27T15:01:29.938Z,1.25
2024-01-27T15:03:57.510Z,1.85
2024-01-27T15:06:25.072Z,1.58
2024-01-27T15:08:54.020Z,1.10
2024-01-27T15:11:21.597Z,1.20
2024-01-27T15:13:48.996Z,1.30
2024-01-27T15:16:16.516Z,1.35
2024-01-27T15:18:45.636Z,2.10
2024-01-27T15:21:13.813Z,1.17
2024-01-27T15:23:41.336Z,0.98
2024-01-27T15:26:10.475Z,1.90
2024-01-27T15:28:37.899Z,1.10
2024-01-27T15:31:05.928Z,2.08
2024-01-27T15:33:33.449Z,1.35
2024-01-27T15:36:01.976Z,1.33
2024-01-27T15:38:29.443Z,1.67
2024-01-27T15:40:57.162Z,1.60
2024-01-27T15:43:25.956Z,1.05
2024-01-27T15:45:53.942Z,1.90
2024-01-27T15:48:21.675Z,1.23
2024-01-27T15:50:49.263Z,1.52
2024-01-27T15:53:16.710Z,1.27
2024-01-27T15:55:44.137Z,2.33
2024-01-27T15:58:11.626Z,1.17
2024-01-27T16:00:40.465Z,1.48
2024-01-27T16:03:08.024Z,1.55
2024-01-27T16:05:35.564Z,1.38
2024-01-27T16:08:03.006Z,1.70
2024-01-27T16:10:30.454Z,2.22
2024-01-27T16:12:57.919Z,1.48
2024-01-27T16:15:25.352Z,1.23
2024-01-27T16:17:54.220Z,1.52
2024-01-27T16:20:21.692Z,1.63
2024-01-27T16:22:49.173Z,1.60
2024-01-27T16:25:16.692Z,1.35
2024-01-27T16:27:44.122Z,1.13
2024-01-27T16:30:12.676Z,1.13
2024-01-27T16:32:40.219Z,1.20
2024-01-27T16:35:09.427Z,1.50
2024-01-27T16:37:37.003Z,1.88
2024-01-27T16:40:05.550Z,1.55
2024-01-27T16:42:33.414Z,1.30
2024-01-27T16:45:01.566Z,1.10
2024-01-27T16:47:29.062Z,1.45
2024-01-27T16:49:56.504Z,1.45
2024-01-27T16:52:25.774Z,0.93
2024-01-27T16:54:53.192Z,1.27
2024-01-27T16:57:20.674Z,1.15
2024-01-27T16:59:48.095Z,1.15
2024-01-27T17:02:15.532Z,1.10
2024-01-27T17:04:43.673Z,1.45
2024-01-27T17:07:11.113Z,1.80
2024-01-27T17:09:39.989Z,1.85
2024-01-27T17:12:11.730Z,1.52
2024-01-27T17:14:40.583Z,2.42
2024-01-27T17:17:08.121Z,1.83
2024-01-27T17:19:35.696Z,2.55
2024-01-27T17:22:03.289Z,2.03
2024-01-27T17:24:30.774Z,2.22
2024-01-27T17:27:01.148Z,2.35
2024-01-27T17:29:28.610Z,2.72
2024-01-27T17:31:56.073Z,2.28
2024-01-27T17:34:23.842Z,2.17
2024-01-27T17:36:51.393Z,2.47
2024-01-27T17:39:18.976Z,1.83
2024-01-27T17:41:46.677Z,1.75
2024-01-27T17:44:15.414Z,1.70
2024-01-27T17:46:42.840Z,2.17
2024-01-27T17:49:10.456Z,1.77
2024-01-27T17:51:38.470Z,1.67
2024-01-27T17:54:06.721Z,1.60
2024-01-27T17:56:34.300Z,1.73
2024-01-27T17:59:01.777Z,1.85
2024-01-27T18:01:30.559Z,2.42
2024-01-27T18:03:58.137Z,1.38
2024-01-27T18:06:25.878Z,2.55
2024-01-27T18:08:53.589Z,1.48
2024-01-27T18:11:21.043Z,1.90
2024-01-27T18:13:50.097Z,2.17
2024-01-27T18:16:17.554Z,2.13
2024-01-27T18:18:46.278Z,2.55
2024-01-27T18:21:13.812Z,2.72
2024-01-27T18:23:41.835Z,3.20
2024-01-27T18:26:09.293Z,2.05
2024-01-27T18:28:36.712Z,1.77
2024-01-27T18:31:04.334Z,1.50
2024-01-27T18:33:31.871Z,2.20
2024-01-27T18:36:00.706Z,2.25
2024-01-27T18:38:28.128Z,2.25
2024-01-27T18:40:55.532Z,2.47
2024-01-27T18:43:23.056Z,2.70
2024-01-27T18:45:50.558Z,2.47
2024-01-27T18:48:18.224Z,1.85
2024-01-27T18:50:46.043Z,2.20
2024-01-27T18:53:14.767Z,2.40
2024-01-27T18:55:43.193Z,1.60
2024-01-27T18:58:11.088Z,1.73
2024-01-27T19:00:39.002Z,1.80
2024-01-27T19:03:09.955Z,2.28
2024-01-27T19:05:37.933Z,1.98
2024-01-27T19:08:05.757Z,2.08
2024-01-27T19:10:34.489Z,2.15
2024-01-27T19:13:02.745Z,2.58
2024-01-27T19:15:32.921Z,1.95
2024-01-27T19:18:00.471Z,2.28
2024-01-27T19:20:28.233Z,2.28
2024-01-27T19:22:55.644Z,2.58
2024-01-27T19:25:23.750Z,2.35
2024-01-27T19:27:52.488Z,2.83
2024-01-27T19:30:20.342Z,3.50
2024-01-27T19:32:48.113Z,3.15
2024-01-27T19:35:17.417Z,2.80
2024-01-27T19:37:44.978Z,3.00
2024-01-27T19:40:13.964Z,3.08
2024-01-27T19:42:41.546Z,4.35
2024-01-27T19:45:11.196Z,3.65
2024-01-27T19:47:39.816Z,3.88
2024-01-27T19:50:08.502Z,3.63
2024-01-27T19:52:36.006Z,4.43
2024-01-27T19:55:03.927Z,3.78
2024-01-27T19:57:31.606Z,3.72
2024-01-27T19:59:59.417Z,3.67
2024-01-27T20:02:28.177Z,3.67
2024-01-27T20:04:55.638Z,3.63
2024-01-27T20:07:23.043Z,3.10
2024-01-27T20:09:50.528Z,3.97
2024-01-27T20:12:18.050Z,2.95
2024-01-27T20:14:46.153Z,3.67
2024-01-27T20:17:13.955Z,3.78
2024-01-27T20:19:42.980Z,2.75
2024-01-27T20:22:10.474Z,2.83
2024-01-27T20:24:38.287Z,3.00
2024-01-27T20:27:06.260Z,3.13
2024-01-27T20:29:33.763Z,2.40
2024-01-27T20:32:04.535Z,3.42
2024-01-27T20:34:34.386Z,2.38
2024-01-27T20:37:03.286Z,3.30
2024-01-27T20:39:31.993Z,2.40
2024-01-27T20:41:59.520Z,2.75
2024-01-27T20:44:26.952Z,2.45
2024-01-27T20:46:54.391Z,1.92
2024-01-27T20:49:21.985Z,2.63
2024-01-27T20:51:52.013Z,2.70
2024-01-27T20:54:20.913Z,2.60
2024-01-27T20:56:48.662Z,2.38
2024-01-27T20:59:16.062Z,2.03
2024-01-27T21:01:43.489Z,1.95
2024-01-27T21:04:12.226Z,2.35
2024-01-27T21:06:39.798Z,2.85
2024-01-27T21:09:07.982Z,2.13
2024-01-27T21:11:36.843Z,2.42
2024-01-27T21:14:06.100Z,2.25
2024-01-27T21:16:34.192Z,2.38
2024-01-27T21:19:01.826Z,2.95
2024-01-27T21:21:29.433Z,2.33
2024-01-27T21:23:56.859Z,2.17
2024-01-27T21:26:24.322Z,2.30
2024-01-27T21:28:55.361Z,3.05
2024-01-27T21:31:22.782Z,2.08
2024-01-27T21:33:50.874Z,2.47
2024-01-27T21:36:18.372Z,2.55
2024-01-27T21:38:45.819Z,2.85
2024-01-27T21:41:13.301Z,3.85
2024-01-27T21:43:40.694Z,2.50
2024-01-27T21:46:09.664Z,3.05
2024-01-27T21:48:37.230Z,2.67
2024-01-27T21:51:05.386Z,2.90
2024-01-27T21:53:34.313Z,3.38
2024-01-27T21:56:01.734Z,3.63
2024-01-27T21:58:29.115Z,3.55
2024-01-27T22:00:56.663Z,3.50
2024-01-27T22:03:25.538Z,3.42
2024-01-27T22:05:53.088Z,4.43
2024-01-27T22:08:20.643Z,3.30
2024-01-27T22:10:48.389Z,3.40
2024-01-27T22:13:15.822Z,4.20
2024-01-27T22:15:43.357Z,4.03
2024-01-27T22:18:10.969Z,4.00
2024-01-27T22:20:39.833Z,3.83
2024-01-27T22:23:07.283Z,4.03
2024-01-27T22:25:35.137Z,4.28
2024-01-27T22:28:02.581Z,3.85
2024-01-27T22:30:29.996Z,3.72
2024-01-27T22:32:57.540Z,4.57
2024-01-27T22:35:25.043Z,3.63
2024-01-27T22:37:53.786Z,3.65
2024-01-27T22:40:21.585Z,4.53
2024-01-27T22:42:49.156Z,4.18
2024-01-27T22:45:16.824Z,4.55
2024-01-27T22:47:44.273Z,3.88
2024-01-27T22:50:12.021Z,3.88
2024-01-27T22:52:40.635Z,4.40
2024-01-27T22:55:10.157Z,4.72
2024-01-27T22:57:38.201Z,4.43
2024-01-27T23:00:12.936Z,4.00
2024-01-27T23:02:40.352Z,4.00
2024-01-27T23:05:08.411Z,4.35
2024-01-27T23:07:35.816Z,4.10
2024-01-27T23:10:03.236Z,4.13
2024-01-27T23:12:32.042Z,4.38
2024-01-27T23:14:59.475Z,5.72
2024-01-27T23:17:26.879Z,4.05
2024-01-27T23:19:54.550Z,4.15
2024-01-27T23:22:22.174Z,3.80
2024-01-27T23:24:49.605Z,4.50
2024-01-27T23:27:17.042Z,4.65
2024-01-27T23:29:45.820Z,4.18
2024-01-27T23:32:13.220Z,4.32
2024-01-27T23:34:42.318Z,4.50
2024-01-27T23:37:09.880Z,5.00
2024-01-27T23:39:37.587Z,4.47
2024-01-27T23:42:05.543Z,4.45
2024-01-27T23:44:32.980Z,4.82
2024-01-27T23:47:01.780Z,4.28
2024-01-27T23:49:29.507Z,5.00
2024-01-27T23:51:56.985Z,5.47
2024-01-27T23:54:24.437Z,5.28
2024-01-27T23:56:51.952Z,4.22
2024-01-27T23:59:19.505Z,4.75
